createdAt,value
2023-01-19T00:02:41.779Z,6.45
2023-01-19T00:07:00.903Z,6.44
2023-01-19T00:11:02.227Z,6.41
2023-01-19T00:14:50.376Z,6.36
2023-01-19T00:18:35.080Z,6.33
2023-01-19T00:23:16.850Z,6.28
2023-01-19T00:26:39.501Z,6.26
2023-01-19T00:30:20.735Z,6.23
2023-01-19T00:34:08.963Z,6.18
2023-01-19T00:38:01.003Z,6.16
2023-01-19T00:42:10.401Z,6.10
2023-01-19T00:50:38.622Z,6.12
2023-01-19T00:54:27.580Z,6.09
2023-01-19T00:58:36.834Z,6.08
2023-01-19T01:03:12.311Z,6.10
2023-01-19T01:06:37.200Z,6.07
2023-01-19T01:10:19.080Z,6.10
2023-01-19T01:14:08.577Z,6.14
2023-01-19T01:18:17.908Z,6.18
2023-01-19T01:22:18.398Z,6.20
2023-01-19T01:26:07.977Z,6.20
2023-01-19T01:29:55.908Z,6.20
2023-01-19T01:33:40.821Z,6.20
2023-01-19T01:37:39.640Z,6.22
2023-01-19T01:41:30.955Z,6.24
2023-01-19T01:45:23.995Z,6.22
2023-01-19T01:49:33.544Z,6.16
2023-01-19T01:54:20.493Z,6.13
2023-01-19T01:57:43.281Z,6.06
2023-01-19T02:01:30.246Z,6.00
2023-01-19T02:05:21.799Z,5.96
2023-01-19T02:09:23.576Z,5.95
2023-01-19T02:13:45.269Z,6.02
2023-01-19T02:17:55.989Z,6.09
2023-01-19T02:23:03.558Z,6.10
2023-01-19T02:26:34.044Z,6.10
2023-01-19T02:32:59.758Z,6.05
2023-01-19T02:35:09.952Z,5.98
2023-01-19T02:39:12.765Z,5.93
2023-01-19T02:43:14.726Z,5.93
2023-01-19T02:47:04.626Z,5.92
2023-01-19T02:51:46.343Z,5.91
2023-01-19T02:56:17.942Z,5.94
2023-01-19T02:59:38.893Z,6.01
2023-01-19T03:03:47.566Z,6.04
2023-01-19T03:08:11.005Z,6.03
2023-01-19T03:12:01.284Z,5.99
2023-01-19T03:16:09.119Z,5.97
2023-01-19T03:20:13.491Z,5.91
2023-01-19T03:24:21.745Z,5.85
2023-01-19T03:28:27.411Z,5.79
2023-01-19T03:33:04.972Z,5.76
2023-01-19T03:37:17.293Z,5.74
2023-01-19T03:41:29.703Z,5.72
2023-01-19T03:45:22.560Z,5.70
2023-01-19T03:49:30.447Z,5.74
2023-01-19T03:58:07.087Z,5.92
2023-01-19T04:03:02.946Z,5.97
2023-01-19T04:08:20.689Z,6.03
2023-01-19T04:11:14.216Z,6.08
2023-01-19T04:15:07.058Z,6.12
2023-01-19T04:20:39.582Z,6.14
2023-01-19T04:23:46.871Z,6.14
2023-01-19T04:28:21.549Z,6.11
2023-01-19T04:31:46.849Z,6.08
2023-01-19T04:41:16.167Z,6.11
2023-01-19T04:44:40.285Z,6.14
2023-01-19T04:52:46.538Z,6.23
2023-01-19T04:56:58.813Z,6.28
2023-01-19T05:01:15.808Z,6.32
2023-01-19T05:05:25.789Z,6.33
2023-01-19T05:09:34.828Z,6.34
2023-01-19T05:13:44.200Z,6.36
2023-01-19T05:17:27.072Z,6.38
2023-01-19T05:29:38.468Z,6.56
2023-01-19T05:31:11.018Z,6.65
2023-01-19T05:35:35.397Z,6.75
2023-01-19T05:39:41.161Z,6.82
2023-01-19T05:44:07.879Z,6.85
2023-01-19T05:48:18.284Z,6.89
2023-01-19T05:52:07.820Z,6.94
2023-01-19T05:56:03.893Z,6.94
2023-01-19T06:00:30.258Z,6.96
2023-01-19T06:04:16.701Z,7.04
2023-01-19T06:08:04.595Z,7.12
2023-01-19T06:11:53.070Z,7.17
2023-01-19T06:15:49.776Z,7.20
2023-01-19T06:20:03.711Z,7.20
2023-01-19T06:23:51.662Z,7.18
2023-01-19T06:27:39.504Z,7.15
2023-01-19T06:31:32.942Z,7.16
2023-01-19T06:35:24.906Z,7.27
2023-01-19T06:40:04.332Z,7.45
2023-01-19T06:43:27.975Z,7.66
2023-01-19T06:47:25.256Z,7.79
2023-01-19T06:51:34.807Z,7.88
2023-01-19T06:55:30.826Z,7.88
2023-01-19T06:59:38.783Z,7.89
2023-01-19T07:03:37.815Z,7.92
2023-01-19T07:07:59.454Z,7.94
2023-01-19T07:12:20.815Z,7.95
2023-01-19T07:16:14.267Z,7.97
2023-01-19T07:21:41.135Z,7.96
2023-01-19T07:24:32.352Z,7.95
2023-01-19T07:28:35.747Z,7.95
2023-01-19T07:32:51.193Z,8.02
2023-01-19T07:36:43.767Z,8.10
2023-01-19T07:40:38.572Z,8.18
2023-01-19T07:45:27.170Z,8.29
2023-01-19T07:48:54.998Z,8.38
2023-01-19T07:53:27.163Z,8.48
2023-01-19T07:57:25.108Z,8.58
2023-01-19T08:01:13.596Z,8.68
2023-01-19T08:05:29.637Z,8.77
2023-01-19T08:09:28.441Z,8.84
2023-01-19T08:13:19.025Z,8.88
2023-01-19T08:17:30.323Z,8.91
2023-01-19T08:21:32.813Z,8.97
2023-01-19T08:25:41.713Z,9.07
2023-01-19T08:29:32.863Z,9.14
2023-01-19T08:33:27.948Z,9.20
2023-01-19T08:37:31.821Z,9.27
2023-01-19T08:41:40.967Z,9.38
2023-01-19T08:45:33.779Z,9.49
2023-01-19T08:49:41.701Z,9.61
2023-01-19T08:53:54.805Z,9.77
2023-01-19T08:57:47.875Z,9.88
2023-01-19T09:01:16.305Z,9.96
2023-01-19T09:05:10.573Z,10.00
2023-01-19T09:09:24.302Z,9.99
2023-01-19T09:13:12.207Z,9.98
2023-01-19T09:17:02.228Z,9.97
2023-01-19T09:20:54.581Z,10.04
2023-01-19T09:25:13.992Z,10.15
2023-01-19T09:29:12.582Z,10.36
2023-01-19T09:33:13.377Z,10.59
2023-01-19T09:37:02.714Z,10.73
2023-01-19T09:40:55.500Z,10.85
2023-01-19T09:44:49.787Z,10.94
2023-01-19T09:48:40.541Z,11.05
2023-01-19T09:52:30.673Z,11.15
2023-01-19T09:56:43.841Z,11.18
2023-01-19T10:00:38.066Z,11.25
2023-01-19T10:04:46.433Z,11.30
2023-01-19T10:08:56.890Z,11.22
2023-01-19T10:12:57.029Z,11.05
2023-01-19T10:16:50.559Z,10.92
2023-01-19T10:20:39.767Z,10.89
2023-01-19T10:25:03.338Z,10.94
2023-01-19T10:30:38.707Z,11.05
2023-01-19T10:33:24.494Z,11.10
2023-01-19T10:37:13.059Z,11.20
2023-01-19T10:40:56.967Z,11.30
2023-01-19T10:46:48.673Z,11.53
2023-01-19T10:49:37.826Z,11.84
2023-01-19T10:53:38.970Z,12.17
2023-01-19T10:57:41.831Z,12.62
2023-01-19T11:01:35.375Z,13.04
2023-01-19T11:10:27.414Z,13.46
2023-01-19T11:14:19.936Z,13.63
2023-01-19T11:18:28.413Z,13.80
2023-01-19T11:22:18.720Z,13.85
2023-01-19T11:30:35.759Z,13.77
2023-01-19T11:38:29.096Z,13.53
2023-01-19T11:42:32.445Z,13.34
2023-01-19T11:46:29.034Z,13.21
2023-01-19T11:50:32.071Z,13.05
2023-01-19T11:54:36.087Z,12.86
2023-01-19T11:58:28.105Z,12.77
2023-01-19T12:02:22.716Z,12.70
2023-01-19T12:06:23.911Z,12.62
2023-01-19T12:10:17.933Z,12.47
2023-01-19T12:14:26.487Z,12.35
2023-01-19T12:19:07.313Z,12.25
2023-01-19T12:22:38.354Z,12.07
2023-01-19T12:27:13.394Z,11.93
2023-01-19T12:35:32.772Z,11.88
2023-01-19T12:40:03.820Z,11.91
2023-01-19T12:43:59.133Z,12.02
2023-01-19T12:48:15.686Z,12.22
2023-01-19T12:52:04.857Z,12.39
2023-01-19T12:55:53.492Z,12.61
2023-01-19T12:59:44.569Z,12.61
2023-01-19T13:07:49.753Z,12.61
2023-01-19T13:11:42.033Z,12.60
2023-01-19T13:15:39.759Z,12.58
2023-01-19T13:19:46.263Z,12.59
2023-01-19T13:24:38.139Z,12.51
2023-01-19T13:28:28.377Z,12.45
2023-01-19T13:32:04.291Z,12.41
2023-01-19T13:37:10.607Z,12.40
2023-01-19T13:40:33.860Z,12.40
2023-01-19T13:44:25.231Z,12.32
2023-01-19T13:49:00.047Z,12.23
2023-01-19T13:52:52.582Z,12.20
2023-01-19T13:56:49.347Z,12.14
2023-01-19T14:00:50.039Z,12.06
2023-01-19T14:04:40.163Z,11.98
2023-01-19T14:08:51.111Z,11.90
2023-01-19T14:13:16.391Z,11.81
2023-01-19T14:17:50.100Z,11.71
2023-01-19T14:21:57.670Z,11.50
2023-01-19T14:25:47.811Z,11.33
2023-01-19T14:29:44.695Z,11.20
2023-01-19T14:33:40.074Z,11.13
2023-01-19T14:37:26.967Z,11.03
2023-01-19T14:41:45.919Z,11.02
2023-01-19T14:45:39.290Z,10.89
2023-01-19T14:50:04.734Z,10.82
2023-01-19T14:54:08.957Z,10.72
2023-01-19T14:58:33.770Z,10.68
2023-01-19T15:06:54.850Z,10.56
2023-01-19T15:10:53.007Z,10.59
2023-01-19T15:15:10.100Z,10.55
2023-01-19T15:18:55.615Z,10.46
2023-01-19T15:22:48.852Z,10.46
2023-01-19T15:26:42.082Z,10.37
2023-01-19T15:30:20.716Z,10.32
2023-01-19T15:34:23.119Z,10.35
2023-01-19T15:38:22.631Z,10.23
2023-01-19T15:42:26.519Z,10.13
2023-01-19T15:47:33.213Z,10.07
2023-01-19T15:50:52.590Z,10.05
2023-01-19T15:54:42.575Z,10.03
2023-01-19T15:58:41.346Z,10.03
2023-01-19T16:03:04.577Z,9.99
2023-01-19T16:07:07.053Z,9.98
2023-01-19T16:11:10.752Z,9.89
2023-01-19T16:15:11.208Z,9.83
2023-01-19T16:23:43.195Z,9.90
2023-01-19T16:27:20.632Z,9.87
2023-01-19T16:31:08.981Z,9.83
2023-01-19T16:34:54.653Z,9.77
2023-01-19T16:38:53.236Z,9.74
2023-01-19T16:42:51.226Z,9.76
2023-01-19T16:46:57.640Z,9.75
2023-01-19T16:50:59.659Z,9.81
2023-01-19T16:55:01.155Z,9.81
2023-01-19T16:59:54.375Z,9.74
2023-01-19T17:03:23.022Z,9.57
2023-01-19T17:07:25.033Z,9.49
2023-01-19T17:11:43.579Z,9.41
2023-01-19T17:15:34.548Z,9.28
2023-01-19T17:19:41.553Z,9.27
2023-01-19T17:23:36.122Z,9.26
2023-01-19T17:27:34.524Z,9.20
2023-01-19T17:31:34.079Z,9.18
2023-01-19T17:35:20.019Z,9.09
2023-01-19T17:39:18.567Z,9.03
2023-01-19T17:43:23.789Z,8.94
2023-01-19T17:47:40.315Z,8.88
2023-01-19T17:51:36.617Z,8.83
2023-01-19T17:55:48.596Z,8.84
2023-01-19T17:59:44.933Z,8.80
2023-01-19T18:04:10.615Z,8.82
2023-01-19T18:12:30.971Z,8.79
2023-01-19T18:16:32.006Z,8.74
2023-01-19T18:20:31.653Z,8.67
2023-01-19T18:28:19.643Z,8.67
2023-01-19T18:32:28.758Z,8.66
2023-01-19T18:36:34.540Z,8.60
2023-01-19T18:40:18.541Z,8.55
2023-01-19T18:41:35.608Z,8.64
2023-01-19T18:44:12.666Z,8.52
2023-01-19T18:52:21.081Z,8.56
2023-01-19T18:55:47.018Z,8.56
2023-01-19T18:59:49.028Z,8.52
2023-01-19T19:09:12.636Z,8.46
2023-01-19T19:11:30.352Z,8.42
2023-01-19T19:15:15.565Z,8.39
2023-01-19T19:22:25.645Z,8.41
2023-01-19T19:23:21.683Z,8.40
2023-01-19T19:26:34.332Z,8.39
2023-01-19T19:30:31.268Z,8.37
2023-01-19T19:34:25.647Z,8.34
2023-01-19T19:38:22.523Z,8.36
2023-01-19T19:42:11.079Z,8.35
2023-01-19T19:45:51.848Z,8.29
2023-01-19T19:49:41.032Z,8.23
2023-01-19T19:53:12.425Z,8.22
2023-01-19T19:57:01.553Z,8.15
2023-01-19T20:05:25.918Z,8.18
2023-01-19T20:09:20.931Z,8.21
2023-01-19T20:13:01.581Z,8.23
2023-01-19T20:21:00.323Z,8.27
2023-01-19T20:24:04.602Z,8.26
2023-01-19T20:27:44.865Z,8.29
2023-01-19T20:31:54.931Z,8.32
2023-01-19T20:39:38.166Z,8.38
2023-01-19T20:43:08.527Z,8.36
2023-01-19T20:51:12.081Z,8.30
2023-01-19T20:54:56.505Z,8.28
2023-01-19T20:58:57.109Z,8.25
2023-01-19T21:02:53.290Z,8.20
2023-01-19T21:06:45.838Z,8.20
2023-01-19T21:10:37.822Z,8.17
2023-01-19T21:15:31.613Z,8.16
2023-01-19T21:23:08.789Z,8.17
2023-01-19T21:27:39.057Z,8.18
2023-01-19T21:31:03.010Z,8.17
2023-01-19T21:34:59.025Z,8.14
2023-01-19T21:38:55.755Z,8.14
2023-01-19T21:43:12.083Z,8.12
2023-01-19T21:47:04.528Z,8.14
2023-01-19T21:50:57.020Z,8.10
2023-01-19T21:55:03.275Z,8.12
2023-01-19T21:58:59.593Z,8.15
2023-01-19T22:03:04.721Z,8.17
2023-01-19T22:07:14.596Z,8.24
2023-01-19T22:11:22.449Z,8.28
2023-01-19T22:15:23.256Z,8.29
2023-01-19T22:19:24.587Z,8.28
2023-01-19T22:23:55.026Z,8.19
2023-01-19T22:27:51.141Z,8.12
2023-01-19T22:32:44.792Z,8.00
2023-01-19T22:36:09.834Z,7.95
2023-01-19T22:40:06.799Z,7.89
2023-01-19T22:44:11.926Z,7.82
2023-01-19T22:48:01.596Z,7.76
2023-01-19T22:52:06.697Z,7.72
2023-01-19T22:56:23.250Z,7.65
2023-01-19T23:01:39.650Z,7.56
2023-01-19T23:04:17.460Z,7.46
2023-01-19T23:08:17.434Z,7.38
2023-01-19T23:12:18.478Z,7.32
2023-01-19T23:16:09.764Z,7.28
2023-01-19T23:19:59.879Z,7.28
2023-01-19T23:23:28.422Z,7.29
2023-01-19T23:32:16.531Z,7.26
2023-01-19T23:36:07.723Z,7.23
2023-01-19T23:40:17.659Z,7.20
2023-01-19T23:44:09.680Z,7.17
2023-01-19T23:49:50.311Z,7.13
2023-01-19T23:56:22.618Z,7.12
